Time;durP1;ratioP1;P1;durP2;ratioP2;P2;SDS_P1;SDS_P2;PMS_P1;PMS_P2;Temp;Humidity;BMP_temperature;BMP_pressure;BME280_temperature;BME280_humidity;BME280_pressure;Samples;Min_cycle;Max_cycle;Signal;HPM_P1;HPM_P2
2021/06/24 00:01:13;;;;;;;4.38;2.72;;;;;;;22.56;60.57;102268.91;5009928;28;20033;-63
2021/06/24 00:03:39;;;;;;;5.32;2.95;;;;;;;22.56;60.41;102267.06;5010537;28;20072;-62
2021/06/24 00:06:05;;;;;;;5.45;3.10;;;;;;;22.57;60.55;102273.28;5009266;28;20405;-61
2021/06/24 00:08:31;;;;;;;4.82;2.90;;;;;;;22.56;60.40;102274.25;5010573;28;20120;-62
2021/06/24 00:10:59;;;;;;;4.88;2.95;;;;;;;22.57;60.23;102283.97;5009597;28;20512;-62
2021/06/24 00:13:25;;;;;;;6.38;3.28;;;;;;;22.56;60.45;102268.91;5010838;28;20154;-61
2021/06/24 00:15:52;;;;;;;4.53;3.00;;;;;;;22.55;60.41;102275.28;5009527;28;20439;-61
2021/06/24 00:18:18;;;;;;;5.60;3.03;;;;;;;22.55;60.40;102273.44;4994628;28;20041;-62
2021/06/24 00:20:45;;;;;;;4.78;3.22;;;;;;;22.55;60.53;102278.78;5009122;28;20439;-61
2021/06/24 00:23:14;;;;;;;4.82;2.63;;;;;;;22.56;60.48;102279.59;5010263;28;20046;-61
2021/06/24 00:25:40;;;;;;;5.68;2.95;;;;;;;22.55;60.64;102272.59;4992379;28;20493;-63
2021/06/24 00:28:06;;;;;;;4.57;2.63;;;;;;;22.56;60.17;102279.59;4992628;28;20026;-61
2021/06/24 00:30:34;;;;;;;4.57;2.70;;;;;;;22.55;60.24;102272.59;5010513;28;20057;-61
2021/06/24 00:33:00;;;;;;;4.82;2.78;;;;;;;22.55;60.25;102275.28;4992973;28;20481;-62
2021/06/24 00:35:25;;;;;;;5.15;3.00;;;;;;;22.53;60.29;102275.47;5007574;28;20056;-61
2021/06/24 00:37:51;;;;;;;5.50;3.00;;;;;;;22.55;60.54;102277.94;4997685;28;20034;-64
2021/06/24 00:40:16;;;;;;;4.93;2.80;;;;;;;22.54;60.50;102276.28;5002200;28;20044;-64
2021/06/24 00:42:44;;;;;;;4.50;2.90;;;;;;;22.54;60.17;102277.13;5008545;28;20378;-62
2021/06/24 00:45:11;;;;;;;5.95;2.80;;;;;;;22.54;60.31;102274.44;4997889;28;20042;-61
2021/06/24 00:47:38;;;;;;;3.58;2.63;;;;;;;22.54;59.97;102270.94;5007026;28;20069;-65
2021/06/24 00:50:05;;;;;;;4.95;3.00;;;;;;;22.53;59.97;102270.09;5008003;28;20057;-61
2021/06/24 00:52:31;;;;;;;5.05;3.10;;;;;;;22.50;60.09;102270.47;5007481;28;20470;-61
2021/06/24 00:54:56;;;;;;;5.25;2.70;;;;;;;22.52;60.22;102270.28;5008932;28;20056;-61
2021/06/24 00:57:23;;;;;;;4.13;2.47;;;;;;;22.51;59.86;102274.81;4991498;28;20125;-62
2021/06/24 00:59:49;;;;;;;4.13;2.95;;;;;;;22.49;59.97;102271.50;5009577;28;20084;-62
2021/06/24 01:02:14;;;;;;;6.32;3.10;;;;;;;22.49;60.02;102271.50;5009279;28;20057;-65
2021/06/24 01:04:40;;;;;;;4.20;2.63;;;;;;;22.48;59.88;102275.19;4973315;28;20022;-65
2021/06/24 01:07:05;;;;;;;5.70;2.92;;;;;;;22.48;59.56;102277.03;5002108;28;20038;-62
2021/06/24 01:09:32;;;;;;;5.93;3.30;;;;;;;22.48;60.11;102280.53;4993325;28;20049;-62
2021/06/24 01:12:01;;;;;;;5.10;3.20;;;;;;;22.48;59.69;102277.84;5008396;28;20041;-61
2021/06/24 01:14:26;;;;;;;4.95;2.67;;;;;;;22.49;59.86;102282.19;5007382;28;20030;-61
2021/06/24 01:16:53;;;;;;;4.57;2.67;;;;;;;22.49;60.10;102286.69;5009059;28;20033;-61
2021/06/24 01:19:18;;;;;;;6.40;3.05;;;;;;;22.48;59.43;102282.38;5007601;28;20084;-63
2021/06/24 01:21:45;;;;;;;4.50;2.72;;;;;;;22.48;59.49;102287.72;5008005;28;20119;-61
2021/06/24 01:24:11;;;;;;;4.70;3.10;;;;;;;22.48;59.64;102288.56;4976994;28;20239;-61
2021/06/24 01:26:38;;;;;;;5.78;3.15;;;;;;;22.48;59.64;102285.03;5008771;28;20041;-61
2021/06/24 01:29:04;;;;;;;4.68;2.70;;;;;;;22.46;59.05;102295.09;4991932;28;20081;-61
2021/06/24 01:31:30;;;;;;;5.50;2.92;;;;;;;22.46;59.26;102287.06;5006562;28;20066;-62
2021/06/24 01:33:56;;;;;;;6.28;3.20;;;;;;;22.44;59.21;102289.94;5008558;28;20038;-61
2021/06/24 01:36:21;;;;;;;6.10;2.80;;;;;;;22.44;59.23;102289.09;5008259;28;20037;-61
2021/06/24 01:38:47;;;;;;;4.82;2.60;;;;;;;22.42;58.90;102287.44;5008224;28;20037;-61
2021/06/24 01:41:14;;;;;;;4.72;2.92;;;;;;;22.42;58.91;102287.44;5009065;28;20128;-61
2021/06/24 01:43:42;;;;;;;5.45;2.55;;;;;;;22.41;58.96;102288.44;4991254;28;20069;-62
2021/06/24 01:46:07;;;;;;;6.07;3.08;;;;;;;22.41;58.95;102290.28;5006291;28;20026;-62
2021/06/24 01:48:33;;;;;;;6.20;3.03;;;;;;;22.40;58.72;102294.78;5009129;28;20065;-62
2021/06/24 01:51:02;;;;;;;5.90;3.25;;;;;;;22.38;58.48;102283.44;4989544;28;20056;-61
2021/06/24 01:53:28;;;;;;;5.75;2.78;;;;;;;22.39;58.68;102284.28;5009127;28;20143;-61
2021/06/24 01:55:54;;;;;;;6.97;3.13;;;;;;;22.39;58.20;102286.94;4973051;28;20093;-62
2021/06/24 01:58:24;;;;;;;6.28;3.47;;;;;;;22.38;58.04;102282.59;5008825;28;20732;-63
2021/06/24 02:00:51;;;;;;;5.68;3.30;;;;;;;22.36;57.89;102281.97;5008400;28;20050;-63
2021/06/24 02:03:18;;;;;;;6.72;3.15;;;;;;;22.35;58.36;102285.66;4991364;28;20113;-62
2021/06/24 02:05:46;;;;;;;6.93;3.47;;;;;;;22.35;57.89;102280.28;5007126;28;20099;-61
2021/06/24 02:08:14;;;;;;;6.97;3.63;;;;;;;22.35;57.71;102288.31;5009003;28;20042;-61
2021/06/24 02:10:40;;;;;;;6.25;3.28;;;;;;;22.34;57.37;102283.97;5008147;28;20393;-63
2021/06/24 02:13:06;;;;;;;6.15;3.42;;;;;;;22.32;57.56;102280.66;5008548;28;20030;-61
2021/06/24 02:15:31;;;;;;;5.07;3.22;;;;;;;22.31;57.70;102279.84;5006684;28;20057;-61
2021/06/24 02:17:57;;;;;;;5.88;3.35;;;;;;;22.30;57.01;102280.84;5007587;28;20030;-61
2021/06/24 02:20:22;;;;;;;6.85;3.30;;;;;;;22.30;56.93;102277.34;5007811;28;20493;-61
2021/06/24 02:22:48;;;;;;;7.43;3.83;;;;;;;22.29;57.28;102279.19;5008322;28;20038;-61
2021/06/24 02:25:14;;;;;;;6.65;3.45;;;;;;;22.30;57.12;102277.34;5008235;28;20042;-65
2021/06/24 02:27:41;;;;;;;7.10;3.45;;;;;;;22.30;56.71;102270.16;5008772;28;20607;-66
2021/06/24 02:30:08;;;;;;;4.65;3.50;;;;;;;22.30;56.77;102274.66;4990608;28;20033;-61
2021/06/24 02:32:33;;;;;;;6.20;3.50;;;;;;;22.29;56.44;102273.84;5008552;28;20038;-63
2021/06/24 02:34:59;;;;;;;7.25;4.07;;;;;;;22.28;56.53;102266.81;5006735;28;20038;-62
2021/06/24 02:37:24;;;;;;;7.70;3.83;;;;;;;22.28;56.59;102276.69;4990491;28;20690;-62
2021/06/24 02:39:50;;;;;;;6.90;4.03;;;;;;;22.27;56.16;102272.34;5007688;28;20045;-61
2021/06/24 02:42:15;;;;;;;7.40;3.33;;;;;;;22.26;56.12;102270.69;4990853;28;20044;-61
2021/06/24 02:44:42;;;;;;;4.90;3.45;;;;;;;22.25;56.32;102267.19;5008511;28;20037;-67
2021/06/24 02:47:08;;;;;;;6.60;3.50;;;;;;;22.25;55.82;102266.34;5006215;28;20034;-61
2021/06/24 02:49:33;;;;;;;7.03;3.70;;;;;;;22.24;55.64;102262.00;4990381;28;20037;-65
2021/06/24 02:51:58;;;;;;;6.07;4.05;;;;;;;22.23;56.04;102266.50;4991510;28;20038;-61
2021/06/24 02:54:24;;;;;;;7.43;3.97;;;;;;;22.22;55.90;102267.53;5008052;28;20545;-61
2021/06/24 02:56:49;;;;;;;8.05;4.18;;;;;;;22.21;55.75;102267.72;5009422;28;20042;-62
2021/06/24 02:59:15;;;;;;;8.18;4.20;;;;;;;22.20;55.41;102277.56;5011102;28;20034;-62
2021/06/24 03:01:40;;;;;;;7.97;4.35;;;;;;;22.19;55.35;102269.72;5011875;28;20159;-64
2021/06/24 03:04:06;;;;;;;6.13;3.92;;;;;;;22.20;55.30;102279.41;4997851;28;20045;-62
2021/06/24 03:06:33;;;;;;;7.50;4.05;;;;;;;22.20;55.26;102266.06;5001243;28;20025;-62
2021/06/24 03:08:59;;;;;;;7.40;4.05;;;;;;;22.20;55.23;102269.56;4993725;28;20029;-63
2021/06/24 03:11:25;;;;;;;8.15;4.30;;;;;;;22.19;55.10;102267.91;4993994;28;20038;-61
2021/06/24 03:13:50;;;;;;;7.35;4.25;;;;;;;22.19;55.23;102269.72;5009951;28;20485;-61
2021/06/24 03:16:16;;;;;;;6.50;4.20;;;;;;;22.19;55.33;102265.22;4997796;28;20083;-61
2021/06/24 03:18:42;;;;;;;6.68;4.30;;;;;;;22.19;55.21;102265.22;5011242;28;20535;-66
2021/06/24 03:21:08;;;;;;;6.93;4.38;;;;;;;22.20;55.36;102282.09;4998137;28;20030;-60
2021/06/24 03:23:33;;;;;;;7.25;4.30;;;;;;;22.20;55.07;102280.25;5010363;28;20087;-62
2021/06/24 03:25:59;;;;;;;7.82;4.70;;;;;;;22.19;54.99;102283.94;5001382;28;20045;-63
2021/06/24 03:28:25;;;;;;;9.18;5.13;;;;;;;22.18;54.75;102278.75;5008642;28;20056;-62
2021/06/24 03:30:50;;;;;;;5.68;4.25;;;;;;;22.17;54.67;102277.94;5010847;28;20469;-61
2021/06/24 03:33:16;;;;;;;8.75;4.68;;;;;;;22.18;54.74;102281.44;5010960;28;20397;-62
2021/06/24 03:35:44;;;;;;;8.25;4.78;;;;;;;22.17;54.58;102280.59;5009165;28;20120;-66
2021/06/24 03:38:10;;;;;;;7.82;4.20;;;;;;;22.17;54.90;102280.59;5009584;28;20121;-62
2021/06/24 03:40:36;;;;;;;8.05;4.70;;;;;;;22.18;54.78;102284.13;5010388;28;20121;-61
2021/06/24 03:43:01;;;;;;;7.68;4.45;;;;;;;22.17;54.24;102283.28;5010748;28;20045;-62
2021/06/24 03:45:27;;;;;;;6.63;4.72;;;;;;;22.17;54.31;102279.78;5010474;28;20093;-61
2021/06/24 03:47:52;;;;;;;9.00;5.07;;;;;;;22.15;54.47;102273.78;4998825;28;20045;-61
2021/06/24 03:50:18;;;;;;;6.93;4.65;;;;;;;22.14;54.49;102270.28;4993981;28;20069;-61
2021/06/24 03:52:44;;;;;;;10.48;5.30;;;;;;;22.15;54.30;102273.78;5010136;28;20496;-62
2021/06/24 03:55:10;;;;;;;8.20;5.38;;;;;;;22.15;54.02;102281.81;5010719;28;20092;-62
2021/06/24 03:57:35;;;;;;;8.20;5.32;;;;;;;22.14;54.18;102282.81;5010389;28;20401;-62
2021/06/24 04:00:01;;;;;;;8.68;5.93;;;;;;;22.11;53.88;102271.47;4984948;28;20038;-62
2021/06/24 04:02:26;;;;;;;8.15;4.80;;;;;;;22.11;53.80;102276.81;5010417;28;20444;-61
2021/06/24 04:04:51;;;;;;;8.50;5.13;;;;;;;22.10;53.97;102282.34;4990668;28;20042;-62
2021/06/24 04:07:17;;;;;;;7.72;5.00;;;;;;;22.11;54.23;102275.97;4993486;28;20034;-61
2021/06/24 04:09:42;;;;;;;7.70;4.80;;;;;;;22.11;54.28;102263.44;4996660;28;20034;-61
2021/06/24 04:12:08;;;;;;;7.13;4.43;;;;;;;22.13;54.21;102267.78;5007724;28;20500;-61
2021/06/24 04:14:34;;;;;;;8.18;4.40;;;;;;;22.14;54.04;102272.13;5016976;28;20040;-63
2021/06/24 04:16:59;;;;;;;9.63;5.40;;;;;;;22.14;53.79;102275.63;5010584;28;20030;-63
2021/06/24 04:19:25;;;;;;;9.25;5.35;;;;;;;22.14;53.79;102272.94;5005942;28;20040;-61
2021/06/24 04:21:51;;;;;;;9.02;5.38;;;;;;;22.14;54.01;102267.59;5008801;28;20119;-63
2021/06/24 04:24:16;;;;;;;6.88;4.97;;;;;;;22.13;53.92;102268.63;5000742;28;20049;-61
2021/06/24 04:26:42;;;;;;;10.90;5.47;;;;;;;22.14;53.78;102269.44;4975867;28;20034;-61
2021/06/24 04:29:08;;;;;;;7.72;5.10;;;;;;;22.15;53.62;102276.47;4979291;28;20034;-61
2021/06/24 04:31:33;;;;;;;7.45;5.53;;;;;;;22.14;53.63;102277.47;5009572;28;20033;-62
2021/06/24 04:33:59;;;;;;;7.60;5.38;;;;;;;22.13;53.47;102267.78;5010615;28;20026;-62
2021/06/24 04:36:24;;;;;;;7.72;5.07;;;;;;;22.14;53.39;102267.59;5002384;28;20078;-61
2021/06/24 04:38:50;;;;;;;8.60;5.90;;;;;;;22.14;53.21;102278.28;5010075;28;20041;-62
2021/06/24 04:41:15;;;;;;;7.93;5.70;;;;;;;22.14;53.13;102267.59;5008656;28;20541;-61
2021/06/24 04:43:41;;;;;;;7.82;6.13;;;;;;;22.14;53.51;102269.44;5009522;28;20517;-61
2021/06/24 04:46:06;;;;;;;10.00;6.45;;;;;;;22.10;53.22;102267.13;5008727;28;20049;-61
2021/06/24 04:48:31;;;;;;;7.43;6.22;;;;;;;22.10;53.18;102264.47;5009022;28;20033;-62
2021/06/24 04:50:57;;;;;;;9.23;5.53;;;;;;;22.10;53.33;102267.13;4997803;28;20502;-61
2021/06/24 04:53:22;;;;;;;10.23;6.15;;;;;;;22.09;53.43;102264.63;4964717;28;20030;-61
2021/06/24 04:55:48;;;;;;;8.25;6.10;;;;;;;22.09;53.46;102268.16;5008940;28;20381;-61
2021/06/24 04:58:13;;;;;;;7.43;6.07;;;;;;;22.09;53.25;102265.47;5009141;28;20038;-62
2021/06/24 05:00:39;;;;;;;8.15;6.43;;;;;;;22.10;53.08;102260.97;5009021;28;20414;-61
2021/06/24 05:03:05;;;;;;;9.38;6.65;;;;;;;22.12;52.90;102269.63;5000458;28;20041;-63
2021/06/24 05:05:31;;;;;;;7.88;6.30;;;;;;;22.11;52.97;102259.94;4991336;28;20038;-62
2021/06/24 05:07:59;;;;;;;8.05;6.30;;;;;;;22.09;52.74;102270.81;4991102;28;20053;-61
2021/06/24 05:10:24;;;;;;;10.48;6.97;;;;;;;22.09;53.07;102273.50;5008008;28;20053;-62
2021/06/24 05:12:50;;;;;;;10.43;7.20;;;;;;;22.10;52.78;102277.00;4995799;28;20037;-63
2021/06/24 05:15:16;;;;;;;10.18;6.60;;;;;;;22.09;52.79;102286.00;5015019;28;20038;-62
2021/06/24 05:17:42;;;;;;;8.13;6.53;;;;;;;22.08;52.66;102284.34;5010787;28;20135;-61
2021/06/24 05:20:10;;;;;;;9.90;6.53;;;;;;;22.06;52.67;102279.16;4998340;28;20072;-62
2021/06/24 05:22:36;;;;;;;10.07;6.53;;;;;;;22.06;52.86;102287.19;5018716;28;20036;-61
2021/06/24 05:25:03;;;;;;;7.22;6.53;;;;;;;22.06;52.60;102289.03;5015508;28;20053;-63
2021/06/24 05:27:29;;;;;;;10.98;7.30;;;;;;;22.05;52.78;102280.19;5017959;28;20095;-61
2021/06/24 05:29:54;;;;;;;9.93;7.70;;;;;;;22.04;52.75;102289.19;5017285;28;20038;-64
2021/06/24 05:32:20;;;;;;;9.15;7.28;;;;;;;22.03;52.61;102286.69;5003474;28;20041;-62
2021/06/24 05:34:45;;;;;;;9.02;7.07;;;;;;;22.02;52.61;102290.38;5018236;28;20091;-67
2021/06/24 05:37:11;;;;;;;9.38;7.43;;;;;;;22.01;52.21;102291.38;5008200;28;20089;-61
2021/06/24 05:39:36;;;;;;;12.23;7.43;;;;;;;22.00;52.53;102292.38;5008240;28;20029;-62
2021/06/24 05:42:02;;;;;;;8.40;6.97;;;;;;;21.99;52.54;102282.72;5014155;28;20048;-62
2021/06/24 05:44:28;;;;;;;11.15;7.20;;;;;;;22.00;52.41;102285.19;5017417;28;20030;-62
2021/06/24 05:46:54;;;;;;;10.80;6.40;;;;;;;21.99;52.25;102286.22;4999541;28;20091;-63
2021/06/24 05:49:20;;;;;;;8.50;7.18;;;;;;;22.00;52.31;102284.38;5013558;28;20104;-62
2021/06/24 05:51:45;;;;;;;9.93;7.25;;;;;;;22.00;52.42;102287.03;5025693;28;20041;-61
2021/06/24 05:54:13;;;;;;;12.27;8.10;;;;;;;22.00;52.51;102287.88;4992804;28;20065;-62
2021/06/24 05:56:40;;;;;;;9.48;7.80;;;;;;;22.00;52.41;102279.84;5009004;28;20120;-64
2021/06/24 05:59:06;;;;;;;10.07;7.25;;;;;;;21.99;52.41;102280.88;5016844;28;20504;-61
2021/06/24 06:01:31;;;;;;;9.13;7.80;;;;;;;21.98;52.55;102278.38;5019345;28;20029;-61
2021/06/24 06:03:57;;;;;;;10.30;8.10;;;;;;;21.97;52.60;102277.53;5019753;28;20409;-62
2021/06/24 06:06:22;;;;;;;10.07;7.60;;;;;;;21.95;52.64;102276.91;5016069;28;20536;-62
2021/06/24 06:08:48;;;;;;;9.55;7.93;;;;;;;21.95;52.66;102281.41;4993510;28;20084;-66
2021/06/24 06:11:13;;;;;;;9.85;7.57;;;;;;;21.95;53.10;102278.75;5005145;28;20042;-63
2021/06/24 06:13:39;;;;;;;9.63;7.95;;;;;;;21.96;53.21;102281.22;5010544;28;20169;-62
2021/06/24 06:16:05;;;;;;;11.07;7.85;;;;;;;21.96;53.11;102275.88;5018586;28;20425;-62
2021/06/24 06:18:31;;;;;;;11.70;7.00;;;;;;;21.98;53.32;102276.53;5000183;28;20129;-62
2021/06/24 06:20:57;;;;;;;10.05;6.22;;;;;;;21.99;53.89;102270.19;5018280;28;20120;-62
2021/06/24 06:23:24;;;;;;;9.10;6.88;;;;;;;22.01;53.85;102264.66;5014361;28;20432;-60
2021/06/24 06:25:51;;;;;;;9.85;7.20;;;;;;;22.03;54.14;102265.31;5017146;28;20451;-62
2021/06/24 06:28:18;;;;;;;12.73;7.72;;;;;;;22.02;53.60;102256.47;5006254;28;20026;-62
2021/06/24 06:30:46;;;;;;;11.18;7.63;;;;;;;22.01;53.58;102259.31;4998575;28;20045;-62
2021/06/24 06:33:11;;;;;;;13.73;7.97;;;;;;;22.00;53.62;102261.16;5009185;28;20432;-62
2021/06/24 06:35:37;;;;;;;9.18;7.60;;;;;;;21.99;53.32;102254.16;5002489;28;20037;-64
2021/06/24 06:38:03;;;;;;;10.95;8.13;;;;;;;21.99;53.47;102270.19;4993813;28;20117;-61
2021/06/24 06:40:29;;;;;;;11.05;8.80;;;;;;;21.99;53.18;102248.81;5016574;28;20072;-61
2021/06/24 06:42:55;;;;;;;10.80;7.63;;;;;;;21.98;53.06;102255.16;5016108;28;20053;-64
2021/06/24 06:45:21;;;;;;;11.45;8.38;;;;;;;21.97;52.89;102250.81;5026496;28;20053;-61
2021/06/24 06:47:47;;;;;;;11.68;8.32;;;;;;;21.95;53.05;102246.69;5013572;28;20549;-62
2021/06/24 06:50:14;;;;;;;8.70;7.80;;;;;;;21.95;52.60;102249.34;5022222;28;20128;-62
2021/06/24 06:52:41;;;;;;;12.10;7.93;;;;;;;21.94;52.47;102247.69;5026028;28;20409;-62
2021/06/24 06:55:07;;;;;;;11.23;8.13;;;;;;;21.93;52.43;102243.31;5013677;28;20049;-62
2021/06/24 06:57:32;;;;;;;11.52;7.53;;;;;;;21.91;52.46;102240.81;4995727;28;20026;-62
2021/06/24 06:59:58;;;;;;;9.55;7.75;;;;;;;21.89;52.57;102240.19;4995209;28;20179;-61
2021/06/24 07:02:23;;;;;;;12.07;7.47;;;;;;;21.89;52.54;102228.66;5011523;28;20500;-63
2021/06/24 07:04:49;;;;;;;11.23;7.10;;;;;;;21.87;52.42;102220.00;4983651;28;20113;-64
2021/06/24 07:07:16;;;;;;;11.70;6.90;;;;;;;21.86;52.51;102227.19;5011392;28;20038;-62
2021/06/24 07:09:41;;;;;;;10.00;6.68;;;;;;;21.86;52.55;102229.03;5000770;28;20042;-63
2021/06/24 07:12:08;;;;;;;10.63;6.53;;;;;;;21.84;52.33;102229.22;5005840;28;20041;-62
2021/06/24 07:14:34;;;;;;;10.20;6.63;;;;;;;21.85;52.08;102232.72;5010484;28;20045;-66
2021/06/24 07:16:59;;;;;;;9.15;6.53;;;;;;;21.82;52.08;102226.72;5011249;28;20112;-62
2021/06/24 07:19:25;;;;;;;11.10;6.15;;;;;;;21.82;52.31;102224.03;5007431;28;20496;-63
2021/06/24 07:21:50;;;;;;;17.30;6.22;;;;;;;21.82;52.42;102232.06;5001763;28;20048;-63
2021/06/24 07:24:16;;;;;;;8.07;5.15;;;;;;;21.81;52.33;102230.41;5020664;28;20064;-66
2021/06/24 07:26:41;;;;;;;15.02;5.50;;;;;;;21.81;51.97;102227.72;4999962;28;20045;-62
2021/06/24 07:29:07;;;;;;;8.55;4.95;;;;;;;21.81;52.39;102237.59;5012662;28;20061;-63
2021/06/24 07:31:33;;;;;;;8.00;5.15;;;;;;;21.80;51.99;102225.22;5000408;28;20038;-62
2021/06/24 07:33:58;;;;;;;11.23;5.25;;;;;;;21.79;51.76;102231.59;4997893;28;20101;-62
2021/06/24 07:36:24;;;;;;;8.70;4.75;;;;;;;21.79;51.79;102226.25;4997107;28;20042;-62
2021/06/24 07:38:49;;;;;;;6.72;4.60;;;;;;;21.78;51.86;102230.75;5006006;28;20045;-63
2021/06/24 07:41:15;;;;;;;11.40;5.00;;;;;;;21.78;51.67;102235.28;5011596;28;20110;-64
2021/06/24 07:43:41;;;;;;;11.60;5.18;;;;;;;21.77;51.52;102228.22;4993653;28;20453;-62
2021/06/24 07:46:06;;;;;;;11.40;5.20;;;;;;;21.76;51.58;102219.38;5007332;28;20053;-62
2021/06/24 07:48:31;;;;;;;11.65;5.20;;;;;;;21.77;51.61;102220.22;5011730;28;20037;-62
2021/06/24 07:50:57;;;;;;;13.27;5.93;;;;;;;21.78;51.93;102221.91;5008141;28;20037;-63
2021/06/24 07:53:22;;;;;;;21.60;6.50;;;;;;;21.79;52.16;102224.41;4977038;28;20041;-63
2021/06/24 07:55:48;;;;;;;17.45;6.03;;;;;;;21.79;51.97;102219.06;5011196;28;20041;-62
2021/06/24 07:58:14;;;;;;;19.05;7.22;;;;;;;21.80;51.94;102217.22;5003027;28;20044;-62
2021/06/24 08:00:40;;;;;;;10.48;6.18;;;;;;;21.80;51.77;102206.53;5001339;28;20045;-64
2021/06/24 08:03:06;;;;;;;15.18;6.78;;;;;;;21.81;52.07;102197.50;5002583;28;20037;-63
2021/06/24 08:05:32;;;;;;;16.05;7.55;;;;;;;21.81;51.56;102203.69;5011319;28;20037;-63
2021/06/24 08:07:58;;;;;;;17.83;7.28;;;;;;;21.81;51.89;102219.72;5007283;28;20480;-63
2021/06/24 08:10:23;;;;;;;17.15;7.18;;;;;;;21.82;51.25;102215.19;4984992;28;20038;-63
2021/06/24 08:12:49;;;;;;;16.38;7.53;;;;;;;21.82;51.68;102220.53;4991729;28;20037;-63
2021/06/24 08:15:17;;;;;;;13.20;6.93;;;;;;;21.81;51.46;102219.72;5016700;28;20038;-64
2021/06/24 08:17:45;;;;;;;15.10;6.20;;;;;;;21.79;51.30;102212.88;5011319;28;20533;-62
2021/06/24 08:20:11;;;;;;;12.25;6.07;;;;;;;21.79;50.86;102226.25;4990002;28;20092;-65
2021/06/24 08:22:37;;;;;;;12.48;5.65;;;;;;;21.77;50.66;102217.53;4981235;28;20038;-64
2021/06/24 08:25:04;;;;;;;8.63;5.13;;;;;;;21.75;50.46;102199.03;4996945;28;20095;-62
2021/06/24 08:27:29;;;;;;;8.25;5.18;;;;;;;21.74;50.44;102209.91;5016668;28;20072;-64
2021/06/24 08:29:57;;;;;;;11.70;5.00;;;;;;;21.71;50.12;102202.25;4997049;28;20582;-64
2021/06/24 08:32:22;;;;;;;10.55;4.88;;;;;;;21.70;49.87;102216.59;4997651;28;20046;-63
2021/06/24 08:34:47;;;;;;;7.78;4.40;;;;;;;21.68;50.02;102203.44;5023578;28;20039;-62
2021/06/24 08:37:13;;;;;;;10.95;4.32;;;;;;;21.67;49.72;102196.44;5015408;28;20045;-62
2021/06/24 08:39:40;;;;;;;8.80;4.25;;;;;;;21.67;49.42;102196.44;4987345;28;20472;-63
2021/06/24 08:42:06;;;;;;;10.20;4.35;;;;;;;21.64;49.71;102204.81;4981085;28;20077;-62
2021/06/24 08:44:32;;;;;;;6.97;3.70;;;;;;;21.65;49.29;102200.28;4977498;28;20040;-62
2021/06/24 08:46:59;;;;;;;9.63;4.20;;;;;;;21.64;49.29;102210.16;4979633;28;20062;-61
2021/06/24 08:49:26;;;;;;;6.45;4.00;;;;;;;21.64;49.56;102210.16;4994517;28;20045;-63
2021/06/24 08:51:58;;;;;;;10.10;4.03;;;;;;;21.61;49.44;102199.78;5027513;28;20041;-64
2021/06/24 08:54:24;;;;;;;7.15;3.85;;;;;;;21.63;49.54;102210.31;5026174;28;20083;-63
2021/06/24 08:56:50;;;;;;;9.23;4.03;;;;;;;21.63;49.46;102196.97;5005554;28;20033;-63
2021/06/24 08:59:16;;;;;;;7.20;4.03;;;;;;;21.62;49.53;102196.13;4996969;28;20046;-63
2021/06/24 09:01:53;;;;;;;8.27;4.05;;;;;;;21.60;49.52;102198.13;5017364;28;20037;-62
2021/06/24 09:04:22;;;;;;;6.45;4.05;;;;;;;21.62;49.80;102187.25;5000755;28;20045;-64
2021/06/24 09:06:48;;;;;;;8.10;3.83;;;;;;;21.62;49.89;102195.28;5017187;28;20025;-63
2021/06/24 09:09:28;;;;;;;7.55;3.80;;;;;;;21.60;50.23;102187.44;4994528;28;20042;-63
2021/06/24 09:12:20;;;;;;;9.07;4.72;;;;;;;21.60;50.28;102183.94;4996077;28;20023;-62
2021/06/24 09:14:53;;;;;;;9.75;3.92;;;;;;;21.64;50.36;102185.28;5013146;28;20038;-62
2021/06/24 09:17:36;;;;;;;8.98;3.80;;;;;;;21.61;50.57;102186.44;4990093;28;20034;-66
2021/06/24 09:20:22;;;;;;;8.30;4.10;;;;;;;21.60;50.43;102179.44;5019434;28;20040;-67
2021/06/24 09:23:06;;;;;;;6.05;3.20;;;;;;;21.61;50.12;102172.25;4994238;28;20467;-63
2021/06/24 09:25:32;;;;;;;7.45;3.40;;;;;;;21.63;50.49;102172.94;5012052;28;20034;-63
2021/06/24 09:27:57;;;;;;;4.65;3.13;;;;;;;21.60;49.94;102168.75;5023037;28;20042;-64
2021/06/24 09:30:32;;;;;;;9.20;3.97;;;;;;;21.57;49.93;102171.78;5017685;28;20028;-63
2021/06/24 09:33:06;;;;;;;7.53;2.75;;;;;;;21.56;50.00;102171.97;5014153;28;20029;-64
2021/06/24 09:35:32;;;;;;;7.40;3.25;;;;;;;21.58;50.07;102175.28;5017089;28;20030;-63
2021/06/24 09:38:15;;;;;;;5.88;2.90;;;;;;;21.55;49.79;102156.94;5022620;28;20033;-63
2021/06/24 09:40:49;;;;;;;5.97;2.85;;;;;;;21.56;49.60;102167.47;5002374;28;20033;-65
2021/06/24 09:43:26;;;;;;;5.43;2.95;;;;;;;21.55;49.91;102172.97;5007888;28;20033;-64
2021/06/24 09:46:16;;;;;;;7.28;3.20;;;;;;;21.54;49.61;102166.81;5017780;28;20022;-63
2021/06/24 09:48:52;;;;;;;7.57;2.95;;;;;;;21.56;49.81;102162.13;5017956;28;20112;-64
2021/06/24 09:51:30;;;;;;;6.20;3.15;;;;;;;21.55;50.07;102157.78;5006041;28;20044;-62
2021/06/24 09:53:58;;;;;;;4.55;3.30;;;;;;;21.58;49.82;102159.25;5022002;28;20064;-63
2021/06/24 09:56:44;;;;;;;6.40;2.80;;;;;;;21.54;49.98;102153.47;5020051;28;20037;-63
2021/06/24 09:59:10;;;;;;;9.20;3.50;;;;;;;21.58;49.71;102151.25;5020318;28;20523;-63
2021/06/24 10:01:43;;;;;;;6.30;3.03;;;;;;;21.59;49.96;102161.75;5006018;28;20461;-63
2021/06/24 10:04:20;;;;;;;6.97;3.80;;;;;;;21.58;49.94;102144.06;5021417;28;20025;-66
2021/06/24 10:06:50;;;;;;;5.93;2.90;;;;;;;21.59;50.02;102145.72;5020146;28;20096;-65
2021/06/24 10:09:16;;;;;;;7.20;3.20;;;;;;;21.61;50.01;102146.38;5009321;28;20037;-63
2021/06/24 10:11:42;;;;;;;6.97;3.50;;;;;;;21.61;49.88;102149.06;5002159;28;20038;-65
2021/06/24 10:14:08;;;;;;;5.50;3.20;;;;;;;21.62;49.97;102136.53;5018231;28;20025;-62
2021/06/24 10:16:34;;;;;;;5.90;3.20;;;;;;;21.64;49.84;102139.88;5015170;28;20164;-63
2021/06/24 10:19:00;;;;;;;4.93;3.10;;;;;;;21.64;50.37;102148.72;5017552;28;20121;-63
2021/06/24 10:21:31;;;;;;;8.40;3.63;;;;;;;21.64;50.00;102137.22;5008531;28;20034;-63
2021/06/24 10:24:01;;;;;;;8.27;3.30;;;;;;;21.65;50.16;102144.22;5002975;28;20490;-63
2021/06/24 10:26:29;;;;;;;6.55;3.25;;;;;;;21.64;50.25;102138.03;5018055;28;20029;-63
2021/06/24 10:29:10;;;;;;;6.25;3.03;;;;;;;21.64;50.31;102142.56;5007618;28;20026;-63
2021/06/24 10:31:38;;;;;;;5.65;3.42;;;;;;;21.66;50.49;102133.34;5017732;28;20040;-63
2021/06/24 10:34:04;;;;;;;5.68;3.75;;;;;;;21.67;50.28;102135.00;5015762;28;20073;-63
2021/06/24 10:36:32;;;;;;;5.55;3.58;;;;;;;21.69;50.48;102134.81;5017073;28;20041;-63
2021/06/24 10:38:58;;;;;;;4.35;3.13;;;;;;;21.69;50.83;102132.16;4990709;28;20030;-62
2021/06/24 10:41:24;;;;;;;5.88;3.33;;;;;;;21.68;50.72;102131.31;5001911;28;20030;-63
2021/06/24 10:43:52;;;;;;;5.00;3.05;;;;;;;21.69;50.66;102132.16;5014534;28;20147;-65
2021/06/24 10:46:21;;;;;;;9.27;3.67;;;;;;;21.69;50.74;102135.66;5017659;28;20461;-63
2021/06/24 10:48:47;;;;;;;5.25;2.95;;;;;;;21.70;51.17;102134.66;5016134;28;20068;-63
2021/06/24 10:51:16;;;;;;;7.18;3.67;;;;;;;21.70;51.05;102139.16;5015189;28;20077;-64
2021/06/24 10:53:53;;;;;;;4.75;3.33;;;;;;;21.67;51.00;102135.00;5017652;28;20033;-63
2021/06/24 10:56:27;;;;;;;5.68;3.15;;;;;;;21.69;51.15;102118.81;5016419;28;20049;-66
2021/06/24 10:58:53;;;;;;;5.80;3.13;;;;;;;21.70;51.05;102121.28;4999219;28;20029;-63
2021/06/24 11:01:44;;;;;;;5.00;3.40;;;;;;;21.69;51.35;102118.81;5015636;28;20037;-66
2021/06/24 11:04:30;;;;;;;7.07;3.92;;;;;;;21.68;51.47;102112.63;5014740;28;20540;-63
2021/06/24 11:06:58;;;;;;;5.15;3.50;;;;;;;21.73;51.68;102109.41;5017194;28;20048;-64
2021/06/24 11:09:23;;;;;;;4.90;3.00;;;;;;;21.73;51.76;102099.56;5008636;28;20065;-63
2021/06/24 11:11:49;;;;;;;7.65;3.30;;;;;;;21.74;51.84;102108.41;5000510;28;20084;-63
2021/06/24 11:14:17;;;;;;;6.82;3.33;;;;;;;21.75;51.99;102105.56;5019665;28;20037;-62
2021/06/24 11:16:44;;;;;;;7.68;3.65;;;;;;;21.76;51.87;102103.72;4996506;28;20110;-63
2021/06/24 11:19:14;;;;;;;7.15;3.47;;;;;;;21.76;52.21;102093.84;5020278;28;20499;-63
2021/06/24 11:21:40;;;;;;;6.20;3.40;;;;;;;21.78;52.02;102094.53;5017441;28;20026;-64
2021/06/24 11:24:05;;;;;;;4.30;3.03;;;;;;;21.78;52.31;102091.84;5012770;28;20397;-63